sensor_id;sensor_type;location;lat;lon;timestamp;pressure;altitude;pressure_sealevel;temperature;humidity
6224;BME280;3145;42.726;23.342;2023-05-19T00:01:19;72633.41;;;-142.70;85.88
6224;BME280;3145;42.726;23.342;2023-05-19T00:03:49;72633.41;;;-142.70;85.68
6224;BME280;3145;42.726;23.342;2023-05-19T00:06:21;72629.38;;;-142.70;86.16
6224;BME280;3145;42.726;23.342;2023-05-19T00:08:53;72629.38;;;-142.70;86.32
6224;BME280;3145;42.726;23.342;2023-05-19T00:11:22;72633.41;;;-142.70;86.30
6224;BME280;3145;42.726;23.342;2023-05-19T00:13:49;72631.41;;;-142.70;86.00
6224;BME280;3145;42.726;23.342;2023-05-19T00:16:17;72637.44;;;-142.70;86.27
6224;BME280;3145;42.726;23.342;2023-05-19T00:18:44;72623.34;;;-142.70;86.43
6224;BME280;3145;42.726;23.342;2023-05-19T00:21:11;72625.38;;;-142.70;86.19
6224;BME280;3145;42.726;23.342;2023-05-19T00:23:38;72631.41;;;-142.70;86.37
6224;BME280;3145;42.726;23.342;2023-05-19T00:26:06;72623.34;;;-142.70;86.01
6224;BME280;3145;42.726;23.342;2023-05-19T00:28:33;72625.38;;;-142.70;86.50
6224;BME280;3145;42.726;23.342;2023-05-19T00:31:00;72629.38;;;-142.70;86.48
6224;BME280;3145;42.726;23.342;2023-05-19T00:33:27;72625.38;;;-142.70;86.88
6224;BME280;3145;42.726;23.342;2023-05-19T00:35:54;72619.31;;;-142.70;86.92
6224;BME280;3145;42.726;23.342;2023-05-19T00:38:20;72627.38;;;-142.70;86.46
6224;BME280;3145;42.726;23.342;2023-05-19T00:40:47;72633.41;;;-142.70;86.29
6224;BME280;3145;42.726;23.342;2023-05-19T00:43:16;72629.38;;;-142.70;86.29
6224;BME280;3145;42.726;23.342;2023-05-19T00:45:43;72641.47;;;-142.70;86.36
6224;BME280;3145;42.726;23.342;2023-05-19T00:48:09;72645.50;;;-142.70;86.76
6224;BME280;3145;42.726;23.342;2023-05-19T00:50:36;72637.44;;;-142.70;87.02
6224;BME280;3145;42.726;23.342;2023-05-19T00:53:03;72645.50;;;-142.70;86.87
6224;BME280;3145;42.726;23.342;2023-05-19T00:55:30;72651.56;;;-142.70;87.06
6224;BME280;3145;42.726;23.342;2023-05-19T00:57:57;72655.59;;;-142.70;87.34
6224;BME280;3145;42.726;23.342;2023-05-19T01:00:25;72649.53;;;-142.70;87.02
6224;BME280;3145;42.726;23.342;2023-05-19T01:02:52;72657.59;;;-142.70;87.10
6224;BME280;3145;42.726;23.342;2023-05-19T01:05:20;72657.59;;;-142.70;87.24
6224;BME280;3145;42.726;23.342;2023-05-19T01:07:47;72657.59;;;-142.70;87.52
6224;BME280;3145;42.726;23.342;2023-05-19T01:10:17;72661.63;;;-142.70;87.34
6224;BME280;3145;42.726;23.342;2023-05-19T01:12:44;72661.63;;;-142.70;87.42
6224;BME280;3145;42.726;23.342;2023-05-19T01:15:12;72673.72;;;-142.70;87.17
6224;BME280;3145;42.726;23.342;2023-05-19T01:17:44;72681.78;;;-142.70;87.41
6224;BME280;3145;42.726;23.342;2023-05-19T01:20:18;72683.78;;;-142.70;87.67
6224;BME280;3145;42.726;23.342;2023-05-19T01:23:07;72685.81;;;-142.70;87.72
6224;BME280;3145;42.726;23.342;2023-05-19T01:26:10;72703.94;;;-142.70;88.49
6224;BME280;3145;42.726;23.342;2023-05-19T01:28:56;72705.94;;;-142.70;88.78
6224;BME280;3145;42.726;23.342;2023-05-19T01:31:30;72703.94;;;-142.70;88.82
6224;BME280;3145;42.726;23.342;2023-05-19T01:33:57;72703.94;;;-142.70;88.92
6224;BME280;3145;42.726;23.342;2023-05-19T01:36:25;72705.94;;;-142.70;88.98
6224;BME280;3145;42.726;23.342;2023-05-19T01:38:55;72707.97;;;-142.70;88.71
6224;BME280;3145;42.726;23.342;2023-05-19T01:41:23;72709.97;;;-142.70;88.87
6224;BME280;3145;42.726;23.342;2023-05-19T01:43:50;72714.00;;;-142.70;88.51
6224;BME280;3145;42.726;23.342;2023-05-19T01:46:18;72718.03;;;-142.70;88.67
6224;BME280;3145;42.726;23.342;2023-05-19T01:48:48;72730.13;;;-142.70;89.43
6224;BME280;3145;42.726;23.342;2023-05-19T01:51:15;72730.13;;;-142.70;89.51
6224;BME280;3145;42.726;23.342;2023-05-19T01:53:42;72734.16;;;-142.70;90.39
6224;BME280;3145;42.726;23.342;2023-05-19T01:56:09;72736.16;;;-142.70;90.24
6224;BME280;3145;42.726;23.342;2023-05-19T01:58:39;72728.09;;;-142.70;90.13
6224;BME280;3145;42.726;23.342;2023-05-19T02:01:16;72726.09;;;-142.70;90.04
6224;BME280;3145;42.726;23.342;2023-05-19T02:03:57;72730.13;;;-142.70;90.15
6224;BME280;3145;42.726;23.342;2023-05-19T02:06:34;72730.13;;;-142.70;90.06
6224;BME280;3145;42.726;23.342;2023-05-19T02:09:06;72734.16;;;-142.70;90.10
6224;BME280;3145;42.726;23.342;2023-05-19T02:11:38;72740.19;;;-142.70;89.97
6224;BME280;3145;42.726;23.342;2023-05-19T02:14:13;72740.19;;;-142.70;90.52
6224;BME280;3145;42.726;23.342;2023-05-19T02:16:44;72738.19;;;-142.70;90.31
6224;BME280;3145;42.726;23.342;2023-05-19T02:19:21;72738.19;;;-142.70;90.85
6224;BME280;3145;42.726;23.342;2023-05-19T02:21:48;72754.28;;;-142.70;90.72
6224;BME280;3145;42.726;23.342;2023-05-19T02:24:14;72740.19;;;-142.70;91.12
6224;BME280;3145;42.726;23.342;2023-05-19T02:26:41;72734.16;;;-142.70;90.84
6224;BME280;3145;42.726;23.342;2023-05-19T02:29:08;72738.19;;;-142.70;90.85
6224;BME280;3145;42.726;23.342;2023-05-19T02:31:35;72724.06;;;-142.70;90.80
6224;BME280;3145;42.726;23.342;2023-05-19T02:34:02;72724.06;;;-142.70;90.18
6224;BME280;3145;42.726;23.342;2023-05-19T02:36:33;72730.13;;;-142.70;90.05
6224;BME280;3145;42.726;23.342;2023-05-19T02:39:01;72738.19;;;-142.70;90.11
6224;BME280;3145;42.726;23.342;2023-05-19T02:41:28;72734.16;;;-142.70;90.03
6224;BME280;3145;42.726;23.342;2023-05-19T02:43:55;72736.16;;;-142.70;90.01
6224;BME280;3145;42.726;23.342;2023-05-19T02:46:23;72740.19;;;-142.70;90.30
6224;BME280;3145;42.726;23.342;2023-05-19T02:48:49;72746.25;;;-142.70;90.18
6224;BME280;3145;42.726;23.342;2023-05-19T02:51:16;72746.25;;;-142.70;90.21
6224;BME280;3145;42.726;23.342;2023-05-19T02:53:44;72748.25;;;-142.70;90.29
6224;BME280;3145;42.726;23.342;2023-05-19T02:56:11;72758.31;;;-142.70;90.87
6224;BME280;3145;42.726;23.342;2023-05-19T02:58:38;72754.28;;;-142.70;90.80
6224;BME280;3145;42.726;23.342;2023-05-19T03:01:07;72778.47;;;-142.70;91.26
6224;BME280;3145;42.726;23.342;2023-05-19T03:03:34;72768.41;;;-142.70;91.30
6224;BME280;3145;42.726;23.342;2023-05-19T03:06:01;72770.41;;;-142.70;91.55
6224;BME280;3145;42.726;23.342;2023-05-19T03:08:28;72766.38;;;-142.70;91.38
6224;BME280;3145;42.726;23.342;2023-05-19T03:10:56;72770.41;;;-142.70;91.70
6224;BME280;3145;42.726;23.342;2023-05-19T03:13:23;72774.44;;;-142.70;91.22
6224;BME280;3145;42.726;23.342;2023-05-19T03:15:49;72758.31;;;-142.70;91.14
6224;BME280;3145;42.726;23.342;2023-05-19T03:18:17;72758.31;;;-142.70;90.95
6224;BME280;3145;42.726;23.342;2023-05-19T03:20:44;72754.28;;;-142.70;91.12
6224;BME280;3145;42.726;23.342;2023-05-19T03:23:11;72750.28;;;-142.70;90.77
6224;BME280;3145;42.726;23.342;2023-05-19T03:25:38;72766.38;;;-142.70;90.81
6224;BME280;3145;42.726;23.342;2023-05-19T03:28:07;72750.28;;;-142.70;90.69
6224;BME280;3145;42.726;23.342;2023-05-19T03:30:35;72740.19;;;-142.70;90.86
6224;BME280;3145;42.726;23.342;2023-05-19T03:33:02;72722.06;;;-142.70;90.54
6224;BME280;3145;42.726;23.342;2023-05-19T03:35:29;72693.84;;;-142.70;90.50
6224;BME280;3145;42.726;23.342;2023-05-19T03:37:57;72683.78;;;-142.70;89.81
6224;BME280;3145;42.726;23.342;2023-05-19T03:40:24;72663.63;;;-142.70;89.00
6224;BME280;3145;42.726;23.342;2023-05-19T03:42:51;72645.50;;;-142.70;87.67
6224;BME280;3145;42.726;23.342;2023-05-19T03:45:20;72637.44;;;-142.70;87.68
6224;BME280;3145;42.726;23.342;2023-05-19T03:47:47;72617.31;;;-142.70;85.56
6224;BME280;3145;42.726;23.342;2023-05-19T03:50:15;72603.19;;;-142.70;85.13
6224;BME280;3145;42.726;23.342;2023-05-19T03:52:42;72581.03;;;-142.70;84.74
6224;BME280;3145;42.726;23.342;2023-05-19T03:55:10;72552.84;;;-142.70;83.39
6224;BME280;3145;42.726;23.342;2023-05-19T03:57:39;72524.63;;;-142.70;82.19
6224;BME280;3145;42.726;23.342;2023-05-19T04:00:06;72492.41;;;-142.70;81.17
6224;BME280;3145;42.726;23.342;2023-05-19T04:02:36;72472.25;;;-142.70;79.76
6224;BME280;3145;42.726;23.342;2023-05-19T04:05:04;72452.13;;;-142.70;78.05
6224;BME280;3145;42.726;23.342;2023-05-19T04:07:31;72411.81;;;-142.70;77.40
6224;BME280;3145;42.726;23.342;2023-05-19T04:09:58;72377.59;;;-142.70;76.04
6224;BME280;3145;42.726;23.342;2023-05-19T04:12:24;72375.56;;;-142.70;74.03
6224;BME280;3145;42.726;23.342;2023-05-19T04:14:51;72349.38;;;-142.70;73.52
6224;BME280;3145;42.726;23.342;2023-05-19T04:17:18;72331.25;;;-142.70;72.37
6224;BME280;3145;42.726;23.342;2023-05-19T04:19:46;72297.00;;;-142.70;71.88
6224;BME280;3145;42.726;23.342;2023-05-19T04:22:13;72307.06;;;-142.70;70.70
6224;BME280;3145;42.726;23.342;2023-05-19T04:24:40;72280.88;;;-142.70;70.42
6224;BME280;3145;42.726;23.342;2023-05-19T04:27:06;72276.88;;;-142.70;70.15
6224;BME280;3145;42.726;23.342;2023-05-19T04:29:36;72230.53;;;-142.70;69.80
6224;BME280;3145;42.726;23.342;2023-05-19T04:32:03;72202.34;;;-142.70;68.46
6224;BME280;3145;42.726;23.342;2023-05-19T04:34:32;72188.22;;;-142.70;67.26
6224;BME280;3145;42.726;23.342;2023-05-19T04:37:00;72158.03;;;-142.70;66.29
6224;BME280;3145;42.726;23.342;2023-05-19T04:39:27;72145.94;;;-142.70;65.88
6224;BME280;3145;42.726;23.342;2023-05-19T04:41:54;72129.81;;;-142.70;64.94
6224;BME280;3145;42.726;23.342;2023-05-19T04:44:20;72097.59;;;-142.70;64.07
6224;BME280;3145;42.726;23.342;2023-05-19T04:46:47;72085.50;;;-142.70;61.51
6224;BME280;3145;42.726;23.342;2023-05-19T04:49:18;72069.38;;;-142.70;59.89
6224;BME280;3145;42.726;23.342;2023-05-19T04:51:45;72047.22;;;-142.70;59.70
6224;BME280;3145;42.726;23.342;2023-05-19T04:54:15;72025.06;;;-142.70;58.76
6224;BME280;3145;42.726;23.342;2023-05-19T04:56:42;72017.03;;;-142.70;58.46
6224;BME280;3145;42.726;23.342;2023-05-19T04:59:09;71988.81;;;-142.70;57.93
6224;BME280;3145;42.726;23.342;2023-05-19T05:01:35;71970.69;;;-142.70;57.61
6224;BME280;3145;42.726;23.342;2023-05-19T05:04:05;71950.56;;;-142.70;56.82
6224;BME280;3145;42.726;23.342;2023-05-19T05:06:32;71956.59;;;-142.70;56.14
6224;BME280;3145;42.726;23.342;2023-05-19T05:08:58;71948.53;;;-142.70;55.67
6224;BME280;3145;42.726;23.342;2023-05-19T05:11:27;71946.53;;;-142.70;55.71
6224;BME280;3145;42.726;23.342;2023-05-19T05:13:54;71964.66;;;-142.70;55.45
6224;BME280;3145;42.726;23.342;2023-05-19T05:16:22;71928.41;;;-142.70;55.55
6224;BME280;3145;42.726;23.342;2023-05-19T05:18:50;71898.19;;;-142.70;54.42
6224;BME280;3145;42.726;23.342;2023-05-19T05:21:17;71884.09;;;-142.70;52.63
6224;BME280;3145;42.726;23.342;2023-05-19T05:23:44;71855.88;;;-142.70;51.92
6224;BME280;3145;42.726;23.342;2023-05-19T05:26:16;71813.59;;;-142.70;51.16
6224;BME280;3145;42.726;23.342;2023-05-19T05:28:45;71809.56;;;-142.70;49.00
6224;BME280;3145;42.726;23.342;2023-05-19T05:31:11;71795.47;;;-142.70;48.63
6224;BME280;3145;42.726;23.342;2023-05-19T05:33:38;71775.31;;;-142.70;47.85
6224;BME280;3145;42.726;23.342;2023-05-19T05:36:05;71763.25;;;-142.70;47.26
6224;BME280;3145;42.726;23.342;2023-05-19T05:38:32;71749.13;;;-142.70;47.29
6224;BME280;3145;42.726;23.342;2023-05-19T05:41:00;71759.22;;;-142.70;47.32
6224;BME280;3145;42.726;23.342;2023-05-19T05:43:27;71775.31;;;-142.70;47.42
6224;BME280;3145;42.726;23.342;2023-05-19T05:45:55;71735.03;;;-142.70;46.78
6224;BME280;3145;42.726;23.342;2023-05-19T05:48:23;71716.91;;;-142.70;46.87
6224;BME280;3145;42.726;23.342;2023-05-19T05:50:51;71676.63;;;-142.70;46.66
6224;BME280;3145;42.726;23.342;2023-05-19T05:53:20;71630.31;;;-142.70;45.62
6224;BME280;3145;42.726;23.342;2023-05-19T05:55:47;71610.19;;;-142.70;44.95
6224;BME280;3145;42.726;23.342;2023-05-19T05:58:14;71602.13;;;-142.70;44.09
6224;BME280;3145;42.726;23.342;2023-05-19T06:00:41;71575.94;;;-142.70;44.42
6224;BME280;3145;42.726;23.342;2023-05-19T06:03:10;71604.13;;;-142.70;44.01
6224;BME280;3145;42.726;23.342;2023-05-19T06:05:38;71584.00;;;-142.70;43.65
6224;BME280;3145;42.726;23.342;2023-05-19T06:08:05;71642.41;;;-142.70;44.13
6224;BME280;3145;42.726;23.342;2023-05-19T06:10:32;71594.06;;;-142.70;43.98
6224;BME280;3145;42.726;23.342;2023-05-19T06:12:59;71575.94;;;-142.70;43.16
6224;BME280;3145;42.726;23.342;2023-05-19T06:15:26;71557.81;;;-142.70;42.90
6224;BME280;3145;42.726;23.342;2023-05-19T06:17:53;71533.66;;;-142.70;43.44
6224;BME280;3145;42.726;23.342;2023-05-19T06:20:21;71493.38;;;-142.70;42.97
6224;BME280;3145;42.726;23.342;2023-05-19T06:22:48;71493.38;;;-142.70;42.01
6224;BME280;3145;42.726;23.342;2023-05-19T06:25:15;71471.22;;;-142.70;42.05
6224;BME280;3145;42.726;23.342;2023-05-19T06:27:41;71463.16;;;-142.70;41.38
6224;BME280;3145;42.726;23.342;2023-05-19T06:30:09;71461.16;;;-142.70;42.18
6224;BME280;3145;42.726;23.342;2023-05-19T06:32:35;71428.91;;;-142.70;41.59
6224;BME280;3145;42.726;23.342;2023-05-19T06:35:03;71434.97;;;-142.70;41.13
6224;BME280;3145;42.726;23.342;2023-05-19T06:37:31;71481.28;;;-142.70;41.38
6224;BME280;3145;42.726;23.342;2023-05-19T06:39:58;71432.94;;;-142.70;40.49
6224;BME280;3145;42.726;23.342;2023-05-19T06:42:25;71404.75;;;-142.70;39.57
6224;BME280;3145;42.726;23.342;2023-05-19T06:44:52;71436.97;;;-142.70;40.76
6224;BME280;3145;42.726;23.342;2023-05-19T06:47:18;71436.97;;;-142.70;40.91
6224;BME280;3145;42.726;23.342;2023-05-19T06:49:45;71410.78;;;-142.70;40.63
6224;BME280;3145;42.726;23.342;2023-05-19T06:52:15;71388.66;;;-142.70;40.33
6224;BME280;3145;42.726;23.342;2023-05-19T06:54:43;71352.41;;;-142.70;40.13
6224;BME280;3145;42.726;23.342;2023-05-19T06:57:09;71352.41;;;-142.70;39.02
6224;BME280;3145;42.726;23.342;2023-05-19T06:59:36;71340.31;;;-142.70;38.91
6224;BME280;3145;42.726;23.342;2023-05-19T07:02:05;71328.22;;;-142.70;39.17
6224;BME280;3145;42.726;23.342;2023-05-19T07:04:32;71310.09;;;-142.70;38.45
6224;BME280;3145;42.726;23.342;2023-05-19T07:06:59;71277.88;;;-142.70;38.38
6224;BME280;3145;42.726;23.342;2023-05-19T07:09:26;71291.97;;;-142.70;38.91
6224;BME280;3145;42.726;23.342;2023-05-19T07:11:54;71283.94;;;-142.70;38.12
6224;BME280;3145;42.726;23.342;2023-05-19T07:14:21;71312.13;;;-142.70;39.16
6224;BME280;3145;42.726;23.342;2023-05-19T07:16:48;71300.03;;;-142.70;37.86
6224;BME280;3145;42.726;23.342;2023-05-19T07:19:15;71279.91;;;-142.70;38.58
6224;BME280;3145;42.726;23.342;2023-05-19T07:21:43;71269.84;;;-142.70;37.85
6224;BME280;3145;42.726;23.342;2023-05-19T07:24:10;71259.75;;;-142.70;38.48
6224;BME280;3145;42.726;23.342;2023-05-19T07:26:37;71247.69;;;-142.70;36.98
6224;BME280;3145;42.726;23.342;2023-05-19T07:29:05;71229.56;;;-142.70;36.57
6224;BME280;3145;42.726;23.342;2023-05-19T07:31:32;71195.31;;;-142.70;37.10
6224;BME280;3145;42.726;23.342;2023-05-19T07:33:58;71181.22;;;-142.70;37.20
6224;BME280;3145;42.726;23.342;2023-05-19T07:36:25;71201.38;;;-142.70;37.14
6224;BME280;3145;42.726;23.342;2023-05-19T07:38:52;71235.59;;;-142.70;36.93
6224;BME280;3145;42.726;23.342;2023-05-19T07:41:19;71195.31;;;-142.70;37.22
6224;BME280;3145;42.726;23.342;2023-05-19T07:43:46;71239.63;;;-142.70;36.92
6224;BME280;3145;42.726;23.342;2023-05-19T07:46:14;71281.91;;;-142.70;37.41
6224;BME280;3145;42.726;23.342;2023-05-19T07:48:40;71277.88;;;-142.70;37.60
6224;BME280;3145;42.726;23.342;2023-05-19T07:51:07;71247.69;;;-142.70;37.30
6224;BME280;3145;42.726;23.342;2023-05-19T07:53:35;71243.66;;;-142.70;37.05
6224;BME280;3145;42.726;23.342;2023-05-19T07:56:02;71225.53;;;-142.70;36.99
6224;BME280;3145;42.726;23.342;2023-05-19T07:58:28;71259.75;;;-142.70;36.79
6224;BME280;3145;42.726;23.342;2023-05-19T08:00:56;71227.53;;;-142.70;36.18
6224;BME280;3145;42.726;23.342;2023-05-19T08:03:24;71275.88;;;-142.70;38.17
6224;BME280;3145;42.726;23.342;2023-05-19T08:05:51;71279.91;;;-142.70;36.48
6224;BME280;3145;42.726;23.342;2023-05-19T08:08:18;71300.03;;;-142.70;37.64
6224;BME280;3145;42.726;23.342;2023-05-19T08:10:46;71328.22;;;-142.70;37.52
6224;BME280;3145;42.726;23.342;2023-05-19T08:13:12;71328.22;;;-142.70;37.72
6224;BME280;3145;42.726;23.342;2023-05-19T08:15:39;71338.31;;;-142.70;39.16
6224;BME280;3145;42.726;23.342;2023-05-19T08:18:06;71300.03;;;-142.70;38.78
6224;BME280;3145;42.726;23.342;2023-05-19T08:20:35;71269.84;;;-142.70;37.19
6224;BME280;3145;42.726;23.342;2023-05-19T08:23:01;71283.94;;;-142.70;37.42
6224;BME280;3145;42.726;23.342;2023-05-19T08:25:28;71344.34;;;-142.70;37.72
6224;BME280;3145;42.726;23.342;2023-05-19T08:27:55;71360.44;;;-142.70;38.71
6224;BME280;3145;42.726;23.342;2023-05-19T08:30:22;71320.19;;;-142.70;39.31
6224;BME280;3145;42.726;23.342;2023-05-19T08:32:48;71283.94;;;-142.70;38.49
6224;BME280;3145;42.726;23.342;2023-05-19T08:35:15;71300.03;;;-142.70;37.04
6224;BME280;3145;42.726;23.342;2023-05-19T08:37:43;71304.06;;;-142.70;37.60
6224;BME280;3145;42.726;23.342;2023-05-19T08:40:15;71352.41;;;-142.70;37.33
6224;BME280;3145;42.726;23.342;2023-05-19T08:42:42;71388.66;;;-142.70;38.01
6224;BME280;3145;42.726;23.342;2023-05-19T08:45:09;71330.25;;;-142.70;38.49
6224;BME280;3145;42.726;23.342;2023-05-19T08:47:36;71344.34;;;-142.70;38.16
6224;BME280;3145;42.726;23.342;2023-05-19T08:50:04;71332.25;;;-142.70;38.03
6224;BME280;3145;42.726;23.342;2023-05-19T08:52:40;71334.28;;;-142.70;38.12
6224;BME280;3145;42.726;23.342;2023-05-19T08:55:19;71332.25;;;-142.70;40.34
6224;BME280;3145;42.726;23.342;2023-05-19T08:57:52;71344.34;;;-142.70;38.83
6224;BME280;3145;42.726;23.342;2023-05-19T09:00:19;71296.00;;;-142.70;38.93
6224;BME280;3145;42.726;23.342;2023-05-19T09:02:48;71324.19;;;-142.70;37.74
6224;BME280;3145;42.726;23.342;2023-05-19T09:05:15;71304.06;;;-142.70;38.83
6224;BME280;3145;42.726;23.342;2023-05-19T09:07:46;71392.69;;;-142.70;39.33
6224;BME280;3145;42.726;23.342;2023-05-19T09:10:14;71412.81;;;-142.70;41.31
6224;BME280;3145;42.726;23.342;2023-05-19T09:12:42;71408.78;;;-142.70;40.16
6224;BME280;3145;42.726;23.342;2023-05-19T09:15:11;71348.38;;;-142.70;39.53
6224;BME280;3145;42.726;23.342;2023-05-19T09:17:39;71368.50;;;-142.70;39.63
6224;BME280;3145;42.726;23.342;2023-05-19T09:20:06;71358.44;;;-142.70;38.68
6224;BME280;3145;42.726;23.342;2023-05-19T09:22:40;71392.69;;;-142.70;39.41
6224;BME280;3145;42.726;23.342;2023-05-19T09:25:17;71388.66;;;-142.70;40.42
6224;BME280;3145;42.726;23.342;2023-05-19T09:27:45;71360.44;;;-142.70;40.47
6224;BME280;3145;42.726;23.342;2023-05-19T09:30:13;71376.56;;;-142.70;39.40
6224;BME280;3145;42.726;23.342;2023-05-19T09:32:40;71396.69;;;-142.70;40.35
6224;BME280;3145;42.726;23.342;2023-05-19T09:35:07;71416.84;;;-142.70;39.79
6224;BME280;3145;42.726;23.342;2023-05-19T09:37:37;71382.59;;;-142.70;39.76
6224;BME280;3145;42.726;23.342;2023-05-19T09:40:06;71338.31;;;-142.70;38.80
6224;BME280;3145;42.726;23.342;2023-05-19T09:42:36;71372.53;;;-142.70;39.00
6224;BME280;3145;42.726;23.342;2023-05-19T09:45:04;71356.44;;;-142.70;40.07
6224;BME280;3145;42.726;23.342;2023-05-19T09:47:34;71316.16;;;-142.70;39.31
6224;BME280;3145;42.726;23.342;2023-05-19T09:50:03;71326.22;;;-142.70;37.97
6224;BME280;3145;42.726;23.342;2023-05-19T09:52:30;71344.34;;;-142.70;38.13
6224;BME280;3145;42.726;23.342;2023-05-19T09:54:58;71304.06;;;-142.70;39.76
6224;BME280;3145;42.726;23.342;2023-05-19T09:57:26;71223.50;;;-142.70;39.22
6224;BME280;3145;42.726;23.342;2023-05-19T10:00:01;71142.97;;;-142.70;36.26
6224;BME280;3145;42.726;23.342;2023-05-19T10:02:33;71263.78;;;-142.70;37.54
6224;BME280;3145;42.726;23.342;2023-05-19T10:05:01;71245.66;;;-142.70;37.43
6224;BME280;3145;42.726;23.342;2023-05-19T10:07:29;71235.59;;;-142.70;38.68
6224;BME280;3145;42.726;23.342;2023-05-19T10:09:56;71320.19;;;-142.70;37.74
6224;BME280;3145;42.726;23.342;2023-05-19T10:12:24;71356.44;;;-142.70;38.26
6224;BME280;3145;42.726;23.342;2023-05-19T10:14:53;71384.63;;;-142.70;39.23
6224;BME280;3145;42.726;23.342;2023-05-19T10:17:23;71348.38;;;-142.70;38.93
6224;BME280;3145;42.726;23.342;2023-05-19T10:19:51;71279.91;;;-142.70;37.89
6224;BME280;3145;42.726;23.342;2023-05-19T10:22:19;71320.19;;;-142.70;37.78
6224;BME280;3145;42.726;23.342;2023-05-19T10:24:46;71253.72;;;-142.70;37.10
6224;BME280;3145;42.726;23.342;2023-05-19T10:27:14;71249.69;;;-142.70;37.22
6224;BME280;3145;42.726;23.342;2023-05-19T10:29:49;71273.84;;;-142.70;36.82
6224;BME280;3145;42.726;23.342;2023-05-19T10:32:23;71316.16;;;-142.70;36.60
6224;BME280;3145;42.726;23.342;2023-05-19T10:35:08;71348.38;;;-142.70;36.36
6224;BME280;3145;42.726;23.342;2023-05-19T10:37:44;71328.22;;;-142.70;37.05
6224;BME280;3145;42.726;23.342;2023-05-19T10:40:18;71259.75;;;-142.70;36.93
6224;BME280;3145;42.726;23.342;2023-05-19T10:42:55;71195.31;;;-142.70;37.79
6224;BME280;3145;42.726;23.342;2023-05-19T10:45:26;71112.75;;;-142.70;36.29
6224;BME280;3145;42.726;23.342;2023-05-19T10:47:55;71094.63;;;-142.70;35.83
6224;BME280;3145;42.726;23.342;2023-05-19T10:50:22;71120.81;;;-142.70;34.45
6224;BME280;3145;42.726;23.342;2023-05-19T10:52:52;71187.28;;;-142.70;35.13
6224;BME280;3145;42.726;23.342;2023-05-19T10:55:44;71251.72;;;-142.70;36.57
6224;BME280;3145;42.726;23.342;2023-05-19T10:58:11;71271.84;;;-142.70;35.58
6224;BME280;3145;42.726;23.342;2023-05-19T11:00:38;71275.88;;;-142.70;36.51
6224;BME280;3145;42.726;23.342;2023-05-19T11:03:13;71312.13;;;-142.70;36.89
6224;BME280;3145;42.726;23.342;2023-05-19T11:05:40;71316.16;;;-142.70;37.37
6224;BME280;3145;42.726;23.342;2023-05-19T11:08:10;71289.97;;;-142.70;37.57
6224;BME280;3145;42.726;23.342;2023-05-19T11:10:37;71255.72;;;-142.70;37.99
6224;BME280;3145;42.726;23.342;2023-05-19T11:13:04;71231.56;;;-142.70;38.11
6224;BME280;3145;42.726;23.342;2023-05-19T11:15:34;71251.72;;;-142.70;34.58
6224;BME280;3145;42.726;23.342;2023-05-19T11:18:01;71273.84;;;-142.70;35.64
6224;BME280;3145;42.726;23.342;2023-05-19T11:20:29;71195.31;;;-142.70;35.54
6224;BME280;3145;42.726;23.342;2023-05-19T11:23:06;71134.91;;;-142.70;34.96
6224;BME280;3145;42.726;23.342;2023-05-19T11:25:46;71130.88;;;-142.70;33.32
6224;BME280;3145;42.726;23.342;2023-05-19T11:28:15;71199.34;;;-142.70;34.69
6224;BME280;3145;42.726;23.342;2023-05-19T11:30:44;71298.03;;;-142.70;35.68
6224;BME280;3145;42.726;23.342;2023-05-19T11:33:13;71364.47;;;-142.70;35.30
6224;BME280;3145;42.726;23.342;2023-05-19T11:35:45;71396.69;;;-142.70;36.22
6224;BME280;3145;42.726;23.342;2023-05-19T11:38:13;71443.03;;;-142.70;36.92
6224;BME280;3145;42.726;23.342;2023-05-19T11:40:41;71428.91;;;-142.70;36.58
6224;BME280;3145;42.726;23.342;2023-05-19T11:43:08;71378.56;;;-142.70;35.93
6224;BME280;3145;42.726;23.342;2023-05-19T11:45:35;71342.31;;;-142.70;36.41
6224;BME280;3145;42.726;23.342;2023-05-19T11:48:02;71330.25;;;-142.70;36.69
6224;BME280;3145;42.726;23.342;2023-05-19T11:50:30;71364.47;;;-142.70;34.93
6224;BME280;3145;42.726;23.342;2023-05-19T11:52:59;71358.44;;;-142.70;35.18
6224;BME280;3145;42.726;23.342;2023-05-19T11:55:26;71430.94;;;-142.70;36.19
6224;BME280;3145;42.726;23.342;2023-05-19T11:57:56;71493.38;;;-142.70;37.68
6224;BME280;3145;42.726;23.342;2023-05-19T12:00:24;71519.53;;;-142.70;37.72
6224;BME280;3145;42.726;23.342;2023-05-19T12:02:51;71622.25;;;-142.70;39.66
6224;BME280;3145;42.726;23.342;2023-05-19T12:05:19;71690.72;;;-142.70;41.23
6224;BME280;3145;42.726;23.342;2023-05-19T12:07:46;71811.56;;;-142.70;41.67
6224;BME280;3145;42.726;23.342;2023-05-19T12:10:17;71829.69;;;-142.70;41.67
6224;BME280;3145;42.726;23.342;2023-05-19T12:12:45;71876.03;;;-142.70;42.08
6224;BME280;3145;42.726;23.342;2023-05-19T12:15:14;71908.25;;;-142.70;42.87
6224;BME280;3145;42.726;23.342;2023-05-19T12:17:41;71932.44;;;-142.70;43.18
6224;BME280;3145;42.726;23.342;2023-05-19T12:20:08;71944.50;;;-142.70;43.44
6224;BME280;3145;42.726;23.342;2023-05-19T12:22:36;71934.44;;;-142.70;43.70
6224;BME280;3145;42.726;23.342;2023-05-19T12:25:04;71952.56;;;-142.70;43.31
6224;BME280;3145;42.726;23.342;2023-05-19T12:27:34;71942.50;;;-142.70;43.64
6224;BME280;3145;42.726;23.342;2023-05-19T12:30:02;71934.44;;;-142.70;43.07
6224;BME280;3145;42.726;23.342;2023-05-19T12:32:32;71926.38;;;-142.70;43.29
6224;BME280;3145;42.726;23.342;2023-05-19T12:35:01;71920.34;;;-142.70;44.34
6224;BME280;3145;42.726;23.342;2023-05-19T12:37:28;71916.31;;;-142.70;45.33
6224;BME280;3145;42.726;23.342;2023-05-19T12:39:56;71900.19;;;-142.70;45.60
6224;BME280;3145;42.726;23.342;2023-05-19T12:42:25;71896.16;;;-142.70;44.85
6224;BME280;3145;42.726;23.342;2023-05-19T12:44:58;71886.09;;;-142.70;44.90
6224;BME280;3145;42.726;23.342;2023-05-19T12:47:29;71896.16;;;-142.70;44.33
6224;BME280;3145;42.726;23.342;2023-05-19T12:50:00;71886.09;;;-142.70;43.93
6224;BME280;3145;42.726;23.342;2023-05-19T12:52:28;71867.97;;;-142.70;44.37
6224;BME280;3145;42.726;23.342;2023-05-19T12:54:58;71855.88;;;-142.70;43.84
6224;BME280;3145;42.726;23.342;2023-05-19T12:57:26;71855.88;;;-142.70;43.93